Time;durP1;ratioP1;P1;durP2;ratioP2;P2;SDS_P1;SDS_P2;PMS_P1;PMS_P2;Temp;Humidity;BMP_temperature;BMP_pressure;BME280_temperature;BME280_humidity;BME280_pressure;Samples;Min_cycle;Max_cycle;Signal;HPM_P1;HPM_P2
2023/09/01 00:01:40;;;;;;;1999.90;999.90;;;14.40;82.40;;;;;;5090114;28;20042;-73
2023/09/01 00:04:06;;;;;;;1999.90;999.90;;;14.40;82.30;;;;;;5091765;28;20054;-73
2023/09/01 00:06:32;;;;;;;1999.90;999.90;;;14.40;82.80;;;;;;5087597;28;20547;-73
2023/09/01 00:08:57;;;;;;;1999.90;999.90;;;14.30;83.30;;;;;;5091139;28;20531;-72
2023/09/01 00:11:23;;;;;;;1999.90;999.90;;;14.30;82.90;;;;;;5091664;28;20032;-72
2023/09/01 00:13:49;;;;;;;1999.90;999.90;;;14.30;83.50;;;;;;5088632;28;20482;-72
2023/09/01 00:16:15;;;;;;;1999.90;999.90;;;14.30;83.30;;;;;;5091512;28;20040;-73
2023/09/01 00:18:41;;;;;;;1999.90;999.90;;;14.30;83.00;;;;;;5088767;28;20105;-73
2023/09/01 00:21:06;;;;;;;1999.90;999.90;;;14.30;83.50;;;;;;5091027;28;20077;-72
2023/09/01 00:23:35;;;;;;;1999.90;999.90;;;14.30;83.00;;;;;;5090275;28;20028;-73
2023/09/01 00:26:02;;;;;;;1999.90;999.90;;;14.30;83.90;;;;;;5092807;28;20485;-71
2023/09/01 00:28:27;;;;;;;1999.90;999.90;;;14.40;83.40;;;;;;5089489;28;20032;-73
2023/09/01 00:30:59;;;;;;;1999.90;999.90;;;14.30;83.00;;;;;;5088411;28;20081;-73
2023/09/01 00:33:28;;;;;;;1999.90;999.90;;;14.30;83.40;;;;;;5089319;28;20037;-73
2023/09/01 00:35:54;;;;;;;1999.90;999.90;;;14.40;83.50;;;;;;5087792;28;20131;-73
2023/09/01 00:38:20;;;;;;;1999.90;999.90;;;14.30;83.20;;;;;;5091426;28;20054;-73
2023/09/01 00:40:49;;;;;;;1999.90;999.90;;;14.40;82.90;;;;;;5088778;28;20057;-72
2023/09/01 00:43:15;;;;;;;1999.90;999.90;;;14.40;83.40;;;;;;5087621;28;20055;-73
2023/09/01 00:45:41;;;;;;;1999.90;999.90;;;14.40;83.30;;;;;;5089879;28;20031;-72
2023/09/01 00:48:10;;;;;;;1999.90;999.90;;;14.40;83.40;;;;;;5088407;28;20035;-73
2023/09/01 00:50:39;;;;;;;1999.90;999.90;;;14.40;83.50;;;;;;5088971;28;20024;-71
2023/09/01 00:53:05;;;;;;;1999.90;999.90;;;14.40;83.40;;;;;;5088156;28;20032;-72
2023/09/01 00:55:35;;;;;;;1999.90;999.90;;;14.40;84.00;;;;;;5089143;28;20486;-72
2023/09/01 00:58:02;;;;;;;1999.90;999.90;;;14.40;83.90;;;;;;5090798;28;20031;-73
2023/09/01 01:00:28;;;;;;;1999.90;999.90;;;14.40;83.70;;;;;;5094482;28;20042;-73
2023/09/01 01:02:55;;;;;;;1999.90;999.90;;;14.40;84.60;;;;;;5086685;28;20043;-72
2023/09/01 01:05:48;;;;;;;1999.90;999.90;;;14.50;83.70;;;;;;5089132;28;20036;-73
2023/09/01 01:08:20;;;;;;;1999.90;999.90;;;14.50;84.10;;;;;;5085237;28;20056;-73
2023/09/01 01:11:09;;;;;;;1999.90;999.90;;;14.50;84.10;;;;;;5084430;28;20020;-73
2023/09/01 01:13:38;;;;;;;1999.90;999.90;;;14.60;83.70;;;;;;5088242;28;20032;-72
2023/09/01 01:16:06;;;;;;;1999.90;999.90;;;14.60;83.90;;;;;;5087012;28;20028;-73
2023/09/01 01:18:35;;;;;;;1999.90;999.90;;;14.60;84.00;;;;;;5084883;28;20032;-73
2023/09/01 01:21:11;;;;;;;1999.90;999.90;;;14.60;83.50;;;;;;5089599;28;20028;-72
2023/09/01 01:23:37;;;;;;;1999.90;999.90;;;14.70;83.60;;;;;;5089755;28;20036;-72
2023/09/01 01:26:05;;;;;;;1999.90;999.90;;;14.70;83.30;;;;;;5090358;28;20064;-73
2023/09/01 01:28:30;;;;;;;1999.90;999.90;;;14.70;83.20;;;;;;5089777;28;20429;-73
2023/09/01 01:30:56;;;;;;;1999.90;999.90;;;14.70;83.20;;;;;;5085621;28;20020;-72
2023/09/01 01:33:34;;;;;;;1999.90;999.90;;;14.70;83.70;;;;;;5089585;28;20077;-73
2023/09/01 01:36:19;;;;;;;1999.90;999.90;;;14.70;84.10;;;;;;5085302;28;20497;-73
2023/09/01 01:39:07;;;;;;;1999.90;999.90;;;14.70;83.90;;;;;;5084481;28;20035;-73
2023/09/01 01:41:52;;;;;;;1999.90;999.90;;;14.70;83.90;;;;;;5081625;28;20020;-73
2023/09/01 01:44:25;;;;;;;1999.90;999.90;;;14.70;84.10;;;;;;5073808;28;20508;-73
2023/09/01 01:46:51;;;;;;;1999.90;999.90;;;14.70;83.60;;;;;;5081216;28;20024;-73
2023/09/01 01:49:18;;;;;;;1999.90;999.90;;;14.80;83.80;;;;;;5073734;28;20024;-73
2023/09/01 01:51:44;;;;;;;1999.90;999.90;;;14.80;83.70;;;;;;5082256;28;20028;-72
2023/09/01 01:54:10;;;;;;;1999.90;999.90;;;14.70;84.00;;;;;;5086468;28;20064;-72
2023/09/01 01:56:35;;;;;;;1999.90;999.90;;;14.80;83.60;;;;;;5089117;28;20042;-72
2023/09/01 01:59:04;;;;;;;1999.90;999.90;;;14.70;84.40;;;;;;5088998;28;20042;-72
2023/09/01 02:01:33;;;;;;;1999.90;999.90;;;14.70;84.50;;;;;;5088610;28;20405;-73
2023/09/01 02:03:59;;;;;;;1999.90;999.90;;;14.60;84.70;;;;;;5087557;28;20055;-72
2023/09/01 02:06:24;;;;;;;1999.90;999.90;;;14.70;84.90;;;;;;5086748;28;20469;-73
2023/09/01 02:08:50;;;;;;;1999.90;999.90;;;14.80;84.80;;;;;;5081733;28;20448;-72
2023/09/01 02:11:15;;;;;;;1999.90;999.90;;;14.70;84.40;;;;;;5084616;28;20028;-74
2023/09/01 02:13:42;;;;;;;1999.90;999.90;;;14.80;83.80;;;;;;5083415;28;20025;-73
2023/09/01 02:16:07;;;;;;;1999.90;999.90;;;14.90;84.10;;;;;;5088976;28;20131;-73
2023/09/01 02:18:33;;;;;;;1999.90;999.90;;;14.80;83.60;;;;;;5086785;28;20114;-73
2023/09/01 02:21:00;;;;;;;1999.90;999.90;;;14.90;83.20;;;;;;5085350;28;20460;-72
2023/09/01 02:23:25;;;;;;;1999.90;999.90;;;14.90;83.30;;;;;;5082864;28;20051;-72
2023/09/01 02:25:51;;;;;;;1999.90;999.90;;;14.90;83.40;;;;;;5094098;28;20073;-73
2023/09/01 02:28:17;;;;;;;1999.90;999.90;;;14.90;83.00;;;;;;5087969;28;20070;-73
2023/09/01 02:30:43;;;;;;;1999.90;999.90;;;15.00;82.50;;;;;;5093053;28;20111;-73
2023/09/01 02:33:09;;;;;;;1999.90;999.90;;;15.00;82.30;;;;;;5093305;28;20443;-73
2023/09/01 02:35:43;;;;;;;1999.90;999.90;;;15.10;81.70;;;;;;5090123;28;20036;-73
2023/09/01 02:38:08;;;;;;;1999.90;999.90;;;15.00;81.90;;;;;;5086915;28;20506;-73
2023/09/01 02:40:34;;;;;;;1999.90;999.90;;;15.10;82.00;;;;;;5092792;28;20044;-72
2023/09/01 02:42:59;;;;;;;1999.90;999.90;;;15.00;82.30;;;;;;5096002;28;20081;-73
2023/09/01 02:45:25;;;;;;;1999.90;999.90;;;15.10;82.30;;;;;;5095009;28;20541;-73
2023/09/01 02:47:51;;;;;;;1999.90;999.90;;;15.00;81.90;;;;;;5088323;28;20490;-73
2023/09/01 02:50:17;;;;;;;1999.90;999.90;;;15.00;82.20;;;;;;5090964;28;20035;-73
2023/09/01 02:52:42;;;;;;;1999.90;999.90;;;15.00;81.90;;;;;;5088077;28;20036;-73
2023/09/01 02:55:08;;;;;;;1999.90;999.90;;;15.00;81.50;;;;;;5087230;28;20399;-73
2023/09/01 02:57:35;;;;;;;1999.90;999.90;;;15.10;81.80;;;;;;5092714;28;20035;-73
2023/09/01 03:00:14;;;;;;;1999.90;999.90;;;15.00;81.30;;;;;;5089212;28;20390;-73
2023/09/01 03:02:41;;;;;;;1999.90;999.90;;;15.00;81.60;;;;;;5087561;28;20108;-73
2023/09/01 03:05:08;;;;;;;1999.90;999.90;;;14.90;82.10;;;;;;5085348;28;20036;-73
2023/09/01 03:07:35;;;;;;;1999.90;999.90;;;15.00;81.60;;;;;;5087778;28;20065;-73
2023/09/01 03:10:01;;;;;;;1999.90;999.90;;;14.90;82.10;;;;;;5091374;28;20028;-73
2023/09/01 03:12:27;;;;;;;1999.90;999.90;;;14.90;82.50;;;;;;5090813;28;20371;-73
2023/09/01 03:14:53;;;;;;;1999.90;999.90;;;14.90;81.70;;;;;;5092048;28;20066;-73
2023/09/01 03:17:18;;;;;;;1999.90;999.90;;;14.80;81.90;;;;;;5092373;28;20059;-73
2023/09/01 03:19:44;;;;;;;1999.90;999.90;;;14.70;82.50;;;;;;5091916;28;20032;-73
2023/09/01 03:22:10;;;;;;;1999.90;999.90;;;14.70;82.60;;;;;;5086403;28;20041;-73
2023/09/01 03:24:36;;;;;;;1999.90;999.90;;;14.70;82.40;;;;;;5091840;28;20039;-73
2023/09/01 03:27:02;;;;;;;1999.90;999.90;;;14.70;82.40;;;;;;5088279;28;20724;-73
2023/09/01 03:29:27;;;;;;;1999.90;999.90;;;14.70;82.90;;;;;;5089096;28;20036;-73
2023/09/01 03:31:53;;;;;;;1999.90;999.90;;;14.50;83.40;;;;;;5088251;28;20036;-73
2023/09/01 03:34:19;;;;;;;1999.90;999.90;;;14.40;84.10;;;;;;5091043;28;20032;-72
2023/09/01 03:36:44;;;;;;;1999.90;999.90;;;14.40;84.40;;;;;;5091412;28;20028;-72
2023/09/01 03:39:10;;;;;;;1999.90;999.90;;;14.30;84.50;;;;;;5090478;28;20033;-73
2023/09/01 03:41:37;;;;;;;1999.90;999.90;;;14.40;84.40;;;;;;5089884;28;20035;-73
2023/09/01 03:44:02;;;;;;;1999.90;999.90;;;14.30;84.80;;;;;;5091445;28;20028;-72
2023/09/01 03:46:28;;;;;;;1999.90;999.90;;;14.30;85.00;;;;;;5090696;28;20122;-73
2023/09/01 03:48:54;;;;;;;1999.90;999.90;;;14.30;84.90;;;;;;5091326;28;20023;-73
2023/09/01 03:51:19;;;;;;;1999.90;999.90;;;14.30;84.90;;;;;;5087715;28;20077;-73
2023/09/01 03:53:45;;;;;;;1999.90;999.90;;;14.30;84.60;;;;;;5088373;28;20101;-74
2023/09/01 03:56:16;;;;;;;1999.90;999.90;;;14.20;85.00;;;;;;5091979;28;20035;-72
2023/09/01 03:58:42;;;;;;;1999.90;999.90;;;14.30;84.80;;;;;;5090544;28;20028;-73
2023/09/01 04:01:08;;;;;;;1999.90;999.90;;;14.30;84.80;;;;;;5090303;28;20039;-73
2023/09/01 04:03:35;;;;;;;1999.90;999.90;;;14.20;84.90;;;;;;5089542;28;20059;-73
2023/09/01 04:06:01;;;;;;;1999.90;999.90;;;14.20;85.30;;;;;;5090530;28;20093;-73
2023/09/01 04:08:27;;;;;;;1999.90;999.90;;;14.10;85.40;;;;;;5090988;28;20416;-72
2023/09/01 04:10:52;;;;;;;1999.90;999.90;;;14.10;85.20;;;;;;5090314;28;20051;-73
2023/09/01 04:13:18;;;;;;;1999.90;999.90;;;14.20;85.20;;;;;;5088771;28;20544;-73
2023/09/01 04:15:44;;;;;;;1999.90;999.90;;;14.20;84.90;;;;;;5090730;28;20047;-72
2023/09/01 04:18:09;;;;;;;1999.90;999.90;;;14.20;85.00;;;;;;5087284;28;20089;-73
2023/09/01 04:20:35;;;;;;;1999.90;999.90;;;14.30;84.20;;;;;;5091300;28;20042;-72
2023/09/01 04:23:00;;;;;;;1999.90;999.90;;;14.30;83.80;;;;;;5089407;28;20051;-72
2023/09/01 04:25:26;;;;;;;1999.90;999.90;;;14.30;83.80;;;;;;5089702;28;20054;-74
2023/09/01 04:27:52;;;;;;;1999.90;999.90;;;14.40;83.80;;;;;;5090459;28;20031;-73
2023/09/01 04:30:17;;;;;;;1999.90;999.90;;;14.30;83.70;;;;;;5088407;28;20024;-73
2023/09/01 04:32:44;;;;;;;1999.90;999.90;;;14.30;83.80;;;;;;5088779;28;20252;-74
2023/09/01 04:35:10;;;;;;;1999.90;999.90;;;14.30;84.20;;;;;;5089596;28;20044;-73
2023/09/01 04:37:36;;;;;;;1999.90;999.90;;;14.20;84.40;;;;;;5090825;28;20113;-73
2023/09/01 04:40:06;;;;;;;1999.90;999.90;;;14.20;84.50;;;;;;5089480;28;20494;-73
2023/09/01 04:42:32;;;;;;;1999.90;999.90;;;14.30;84.40;;;;;;5086482;28;20036;-74
2023/09/01 04:44:58;;;;;;;1999.90;999.90;;;14.40;83.90;;;;;;5086358;28;20028;-73
2023/09/01 04:47:24;;;;;;;1999.90;999.90;;;14.50;83.00;;;;;;5088564;28;20046;-73
2023/09/01 04:49:50;;;;;;;1999.90;999.90;;;14.40;83.20;;;;;;5090543;28;20032;-73
2023/09/01 04:52:15;;;;;;;1999.90;999.90;;;14.40;83.20;;;;;;5087670;28;20031;-73
2023/09/01 04:54:41;;;;;;;1999.90;999.90;;;14.40;83.40;;;;;;5094261;28;20044;-73
2023/09/01 04:57:07;;;;;;;1999.90;999.90;;;14.40;83.20;;;;;;5089757;28;20032;-73
2023/09/01 04:59:32;;;;;;;1999.90;999.90;;;14.40;83.00;;;;;;5087016;28;20027;-73
2023/09/01 05:01:59;;;;;;;1999.90;999.90;;;14.40;83.00;;;;;;5088924;28;20043;-72
2023/09/01 05:04:25;;;;;;;1999.90;999.90;;;14.40;83.70;;;;;;5084365;28;20024;-72
2023/09/01 05:06:51;;;;;;;1999.90;999.90;;;14.30;83.80;;;;;;5084075;28;20028;-72
2023/09/01 05:09:17;;;;;;;1999.90;999.90;;;14.20;84.50;;;;;;5090452;28;20401;-72
2023/09/01 05:11:43;;;;;;;1999.90;999.90;;;14.30;84.30;;;;;;5088439;28;20024;-72
2023/09/01 05:14:08;;;;;;;1999.90;999.90;;;14.30;84.10;;;;;;5088188;28;20432;-72
2023/09/01 05:16:34;;;;;;;1999.90;999.90;;;14.30;84.50;;;;;;5063670;28;20060;-73
2023/09/01 05:19:00;;;;;;;1999.90;999.90;;;14.40;84.10;;;;;;5085373;28;20036;-73
2023/09/01 05:21:25;;;;;;;1999.90;999.90;;;14.40;83.90;;;;;;5086436;28;20032;-72
2023/09/01 05:23:51;;;;;;;1999.90;999.90;;;14.50;83.60;;;;;;5089578;28;20055;-71
2023/09/01 05:26:17;;;;;;;1999.90;999.90;;;14.60;83.20;;;;;;5087769;28;20036;-72
2023/09/01 05:28:42;;;;;;;1999.90;999.90;;;14.60;83.50;;;;;;5094778;28;20036;-72
2023/09/01 05:31:08;;;;;;;1999.90;999.90;;;14.70;83.60;;;;;;5092771;28;20111;-72
2023/09/01 05:33:34;;;;;;;1999.90;999.90;;;14.80;83.20;;;;;;5087472;28;20057;-71
2023/09/01 05:35:59;;;;;;;1999.90;999.90;;;14.80;83.10;;;;;;5090064;28;20024;-73
2023/09/01 05:38:25;;;;;;;1999.90;999.90;;;14.80;83.10;;;;;;5090009;28;20134;-72
2023/09/01 05:41:01;;;;;;;1999.90;999.90;;;14.90;83.00;;;;;;5089662;28;20020;-72
2023/09/01 05:43:28;;;;;;;1999.90;999.90;;;14.90;83.10;;;;;;5086050;28;20028;-72
2023/09/01 05:45:54;;;;;;;1999.90;999.90;;;15.00;82.80;;;;;;5088568;28;20081;-73
2023/09/01 05:48:20;;;;;;;1999.90;999.90;;;15.10;82.40;;;;;;5087760;28;20032;-72
2023/09/01 05:50:45;;;;;;;1999.90;999.90;;;15.10;82.60;;;;;;5086962;28;20059;-73
2023/09/01 05:53:11;;;;;;;1999.90;999.90;;;15.20;82.60;;;;;;5087534;28;20035;-72
2023/09/01 05:55:37;;;;;;;1999.90;999.90;;;15.20;82.90;;;;;;5088773;28;20043;-73
2023/09/01 05:58:03;;;;;;;1999.90;999.90;;;15.20;82.80;;;;;;5087629;28;20080;-73
2023/09/01 06:00:29;;;;;;;1999.90;999.90;;;15.20;83.70;;;;;;5086765;28;20028;-72
2023/09/01 06:02:56;;;;;;;1999.90;999.90;;;15.30;83.40;;;;;;5086745;28;20039;-72
2023/09/01 06:05:22;;;;;;;1999.90;999.90;;;15.30;82.30;;;;;;5083044;28;20044;-73
2023/09/01 06:07:48;;;;;;;1999.90;999.90;;;15.40;81.80;;;;;;5088749;28;20498;-73
2023/09/01 06:10:15;;;;;;;1999.90;999.90;;;15.40;81.80;;;;;;5088764;28;20044;-72
2023/09/01 06:12:41;;;;;;;1999.90;999.90;;;15.40;82.20;;;;;;5085525;28;20595;-73
2023/09/01 06:15:08;;;;;;;1999.90;999.90;;;15.50;81.90;;;;;;5087182;28;20678;-73
2023/09/01 06:17:34;;;;;;;1999.90;999.90;;;15.50;82.40;;;;;;5087202;28;20371;-73
2023/09/01 06:19:59;;;;;;;1999.90;999.90;;;15.60;81.30;;;;;;5083947;28;20118;-74
2023/09/01 06:22:25;;;;;;;1999.90;999.90;;;15.60;81.70;;;;;;5088897;28;20032;-73
2023/09/01 06:24:51;;;;;;;1999.90;999.90;;;15.70;81.30;;;;;;5085735;28;20162;-74
2023/09/01 06:27:17;;;;;;;1999.90;999.90;;;15.70;81.70;;;;;;5089583;28;20036;-73
2023/09/01 06:29:42;;;;;;;1999.90;999.90;;;15.80;81.80;;;;;;5088934;28;20024;-73
2023/09/01 06:32:11;;;;;;;1999.90;999.90;;;15.80;81.50;;;;;;5084715;28;20031;-73
2023/09/01 06:34:40;;;;;;;1999.90;999.90;;;15.80;81.20;;;;;;5086765;28;20509;-73
2023/09/01 06:37:06;;;;;;;1999.90;999.90;;;15.80;81.40;;;;;;5087069;28;20169;-73
2023/09/01 06:39:32;;;;;;;1999.90;999.90;;;15.80;80.90;;;;;;5068492;28;20498;-73
2023/09/01 06:41:58;;;;;;;1999.90;999.90;;;15.90;81.40;;;;;;5089188;28;20047;-73
2023/09/01 06:44:23;;;;;;;1999.90;999.90;;;15.80;81.00;;;;;;5088473;28;20036;-73
2023/09/01 06:46:49;;;;;;;1999.90;999.90;;;15.90;81.40;;;;;;5086812;28;20030;-73
2023/09/01 06:49:15;;;;;;;1999.90;999.90;;;16.00;81.20;;;;;;5087780;28;20399;-73
2023/09/01 06:51:41;;;;;;;1999.90;999.90;;;16.00;80.80;;;;;;5071208;28;20103;-73
2023/09/01 06:54:08;;;;;;;1999.90;999.90;;;16.00;80.50;;;;;;5088035;28;20040;-73
2023/09/01 06:56:33;;;;;;;1999.90;999.90;;;16.00;80.60;;;;;;5087704;28;20061;-73
2023/09/01 06:58:59;;;;;;;1999.90;999.90;;;16.10;80.00;;;;;;5085174;28;20036;-73
2023/09/01 07:01:27;;;;;;;1999.90;999.90;;;16.20;80.60;;;;;;5086900;28;20105;-73
2023/09/01 07:03:54;;;;;;;1999.90;999.90;;;16.00;79.80;;;;;;5085744;28;20020;-73
2023/09/01 07:06:19;;;;;;;1999.90;999.90;;;16.10;80.10;;;;;;5088093;28;20046;-73
2023/09/01 07:08:45;;;;;;;1999.90;999.90;;;16.10;79.90;;;;;;5087865;28;20490;-72
2023/09/01 07:11:14;;;;;;;1999.90;999.90;;;16.10;80.20;;;;;;5087909;28;20031;-73
2023/09/01 07:13:43;;;;;;;1999.90;999.90;;;16.20;80.40;;;;;;5092476;28;20054;-73
2023/09/01 07:16:09;;;;;;;1999.90;999.90;;;16.10;80.10;;;;;;5093093;28;20083;-73
2023/09/01 07:18:34;;;;;;;1999.90;999.90;;;16.20;80.30;;;;;;5087555;28;20036;-73
2023/09/01 07:21:01;;;;;;;1999.90;999.90;;;16.10;80.60;;;;;;5091223;28;20038;-73
2023/09/01 07:23:27;;;;;;;1999.90;999.90;;;16.10;80.30;;;;;;5091686;28;20069;-73
2023/09/01 07:25:54;;;;;;;1999.90;999.90;;;16.20;79.80;;;;;;5092195;28;20082;-73
2023/09/01 07:28:20;;;;;;;1999.90;999.90;;;16.30;80.90;;;;;;5091951;28;20039;-73
2023/09/01 07:30:45;;;;;;;1999.90;999.90;;;16.60;80.40;;;;;;5091798;28;20048;-73
2023/09/01 07:33:11;;;;;;;1999.90;999.90;;;16.90;79.10;;;;;;5089808;28;20058;-73
2023/09/01 07:35:37;;;;;;;1999.90;999.90;;;17.00;78.10;;;;;;5092176;28;20052;-73
2023/09/01 07:38:03;;;;;;;1999.90;999.90;;;17.20;76.00;;;;;;5088872;28;20791;-73
2023/09/01 07:40:32;;;;;;;1999.90;999.90;;;17.30;75.80;;;;;;5088290;28;20031;-73
2023/09/01 07:42:59;;;;;;;1999.90;999.90;;;17.20;76.20;;;;;;5086321;28;20036;-73
2023/09/01 07:45:26;;;;;;;1999.90;999.90;;;17.60;76.80;;;;;;5087913;28;20433;-73
2023/09/01 07:47:51;;;;;;;1999.90;999.90;;;17.70;76.20;;;;;;5090480;28;20752;-73
2023/09/01 07:50:17;;;;;;;1999.90;999.90;;;17.90;74.50;;;;;;5090522;28;20123;-73
2023/09/01 07:52:43;;;;;;;1999.90;999.90;;;18.00;74.00;;;;;;5092780;28;20032;-73
2023/09/01 07:55:08;;;;;;;1999.90;999.90;;;18.20;74.20;;;;;;5095304;28;20452;-73
2023/09/01 07:57:34;;;;;;;1999.90;999.90;;;18.30;72.80;;;;;;5094599;28;20525;-73
2023/09/01 08:00:00;;;;;;;1999.90;999.90;;;18.30;71.20;;;;;;5087043;28;20032;-73
2023/09/01 08:02:25;;;;;;;1999.90;999.90;;;18.30;70.60;;;;;;5091625;28;20032;-73
2023/09/01 08:04:51;;;;;;;1999.90;999.90;;;18.50;70.80;;;;;;5092321;28;20901;-73
2023/09/01 08:07:17;;;;;;;1999.90;999.90;;;18.50;68.70;;;;;;5090131;28;20106;-73
2023/09/01 08:09:42;;;;;;;1999.90;999.90;;;18.60;67.90;;;;;;5088933;28;20475;-71
2023/09/01 08:12:08;;;;;;;1999.90;999.90;;;18.60;70.20;;;;;;5087373;28;20039;-73
2023/09/01 08:14:34;;;;;;;1999.90;999.90;;;18.60;68.80;;;;;;5092003;28;20128;-73
2023/09/01 08:16:59;;;;;;;1999.90;999.90;;;18.50;69.70;;;;;;5088086;28;20058;-72
2023/09/01 08:19:25;;;;;;;1999.90;999.90;;;18.80;70.50;;;;;;5086623;28;20040;-73
2023/09/01 08:21:51;;;;;;;1999.90;999.90;;;18.90;68.50;;;;;;5089007;28;20111;-73
2023/09/01 08:24:16;;;;;;;1999.90;999.90;;;19.00;67.60;;;;;;5090543;28;20032;-73
2023/09/01 08:26:42;;;;;;;1999.90;999.90;;;19.00;67.40;;;;;;5086183;28;20042;-73
2023/09/01 08:29:08;;;;;;;1999.90;999.90;;;19.20;66.40;;;;;;5082197;28;20032;-74
2023/09/01 08:31:33;;;;;;;1999.90;999.90;;;19.20;67.90;;;;;;5090185;28;20081;-73
2023/09/01 08:33:59;;;;;;;1999.90;999.90;;;19.20;68.10;;;;;;5083362;28;20504;-73
2023/09/01 08:36:26;;;;;;;1999.90;999.90;;;19.10;67.50;;;;;;5080181;28;20596;-73
2023/09/01 08:38:52;;;;;;;1999.90;999.90;;;19.00;67.00;;;;;;5089492;28;20451;-73
2023/09/01 08:41:17;;;;;;;1999.90;999.90;;;19.20;66.40;;;;;;5089154;28;20032;-73
2023/09/01 08:43:48;;;;;;;1999.90;999.90;;;19.20;65.10;;;;;;5091589;28;20039;-73
2023/09/01 08:46:16;;;;;;;1999.90;999.90;;;19.30;64.40;;;;;;5086644;28;20044;-72
2023/09/01 08:48:42;;;;;;;1999.90;999.90;;;19.60;65.70;;;;;;5085887;28;20027;-73
2023/09/01 08:51:08;;;;;;;1999.90;999.90;;;19.80;65.80;;;;;;5088313;28;20081;-71
2023/09/01 08:53:35;;;;;;;1999.90;999.90;;;19.70;65.70;;;;;;5090351;28;20052;-72
2023/09/01 08:56:01;;;;;;;1999.90;999.90;;;19.60;64.50;;;;;;5088543;28;20036;-73
2023/09/01 08:58:27;;;;;;;1999.90;999.90;;;19.60;64.20;;;;;;5087408;28;20044;-73
2023/09/01 09:00:54;;;;;;;1999.90;999.90;;;19.60;66.10;;;;;;5090245;28;20036;-72
2023/09/01 09:03:21;;;;;;;1999.90;999.90;;;19.40;63.50;;;;;;5091785;28;20529;-73
2023/09/01 09:05:47;;;;;;;1999.90;999.90;;;19.60;64.70;;;;;;5091675;28;20142;-73
2023/09/01 09:08:12;;;;;;;1999.90;999.90;;;19.90;64.30;;;;;;5088907;28;20115;-72
2023/09/01 09:10:43;;;;;;;1999.90;999.90;;;20.00;63.70;;;;;;5089763;28;20085;-73
2023/09/01 09:13:21;;;;;;;1999.90;999.90;;;20.10;62.50;;;;;;5082100;28;20059;-73
2023/09/01 09:16:09;;;;;;;1999.90;999.90;;;20.40;64.00;;;;;;5089783;28;20486;-72
2023/09/01 09:18:43;;;;;;;1999.90;999.90;;;20.50;61.30;;;;;;5086780;28;20455;-72
2023/09/01 09:21:23;;;;;;;1999.90;999.90;;;20.50;63.20;;;;;;5088692;28;20420;-73
2023/09/01 09:23:48;;;;;;;1999.90;999.90;;;20.60;60.20;;;;;;5089135;28;20063;-73
2023/09/01 09:26:14;;;;;;;1999.90;999.90;;;20.60;61.40;;;;;;5086321;28;20072;-73
2023/09/01 09:28:40;;;;;;;1999.90;999.90;;;20.30;60.80;;;;;;5087765;28;20032;-73
2023/09/01 09:31:06;;;;;;;1999.90;999.90;;;20.60;61.10;;;;;;5071377;28;20035;-73
2023/09/01 09:33:39;;;;;;;1999.90;999.90;;;20.90;62.00;;;;;;5086176;28;20032;-72
2023/09/01 09:36:05;;;;;;;1999.90;999.90;;;21.00;61.90;;;;;;5090026;28;20056;-71
2023/09/01 09:38:42;;;;;;;1999.90;999.90;;;20.80;60.20;;;;;;5086297;28;20523;-71
2023/09/01 09:41:08;;;;;;;1999.90;999.90;;;21.10;61.30;;;;;;5086472;28;20404;-73
2023/09/01 09:43:48;;;;;;;1999.90;999.90;;;21.40;62.00;;;;;;5088479;28;20031;-73
2023/09/01 09:46:14;;;;;;;1999.90;999.90;;;21.40;61.10;;;;;;5084665;28;20071;-71
2023/09/01 09:48:41;;;;;;;1999.90;999.90;;;21.50;56.70;;;;;;5089580;28;20032;-71
2023/09/01 09:51:07;;;;;;;1999.90;999.90;;;20.90;57.40;;;;;;5088431;28;20028;-72
2023/09/01 09:53:38;;;;;;;1999.90;999.90;;;20.50;60.40;;;;;;5088625;28;20028;-71
2023/09/01 09:56:30;;;;;;;1999.90;999.90;;;20.40;60.50;;;;;;5088354;28;20028;-71
2023/09/01 09:59:03;;;;;;;1999.90;999.90;;;21.00;61.60;;;;;;5088011;28;20028;-71
2023/09/01 10:01:34;;;;;;;1999.90;999.90;;;21.20;59.90;;;;;;5089335;28;20036;-71
2023/09/01 10:04:04;;;;;;;1999.90;999.90;;;21.10;60.30;;;;;;5088575;28;20058;-71
2023/09/01 10:06:31;;;;;;;1999.90;999.90;;;21.10;58.60;;;;;;5085596;28;20040;-71
2023/09/01 10:09:00;;;;;;;1999.90;999.90;;;21.60;57.10;;;;;;5087974;28;20036;-71
2023/09/01 10:11:29;;;;;;;1999.90;999.90;;;21.80;56.00;;;;;;5079152;28;20024;-70
2023/09/01 10:13:56;;;;;;;1999.90;999.90;;;21.90;57.80;;;;;;5080416;28;20032;-71
2023/09/01 10:16:23;;;;;;;1999.90;999.90;;;22.40;56.00;;;;;;5083033;28;20036;-72
2023/09/01 10:18:49;;;;;;;1999.90;999.90;;;22.00;57.10;;;;;;5084564;28;20549;-71
2023/09/01 10:21:18;;;;;;;1999.90;999.90;;;22.20;56.60;;;;;;5080997;28;20143;-72
2023/09/01 10:23:44;;;;;;;1999.90;999.90;;;22.10;56.00;;;;;;5082488;28;20082;-71
2023/09/01 10:26:28;;;;;;;1999.90;999.90;;;22.40;56.70;;;;;;5089136;28;20039;-71
2023/09/01 10:29:04;;;;;;;1999.90;999.90;;;22.40;54.30;;;;;;5087242;28;20032;-71
2023/09/01 10:31:30;;;;;;;1999.90;999.90;;;22.30;53.40;;;;;;5084688;28;20040;-71
2023/09/01 10:34:15;;;;;;;1999.90;999.90;;;22.20;55.50;;;;;;5088047;28;20474;-71
2023/09/01 10:36:43;;;;;;;1999.90;999.90;;;22.00;54.50;;;;;;5090202;28;20052;-71
2023/09/01 10:39:23;;;;;;;1999.90;999.90;;;22.10;56.00;;;;;;5087739;28;20032;-71
2023/09/01 10:41:54;;;;;;;1999.90;999.90;;;22.40;55.10;;;;;;5089087;28;20056;-71
2023/09/01 10:44:21;;;;;;;1999.90;999.90;;;22.50;52.90;;;;;;5087680;28;20032;-71
2023/09/01 10:46:47;;;;;;;1999.90;999.90;;;23.60;54.10;;;;;;5089495;28;20051;-71
2023/09/01 10:49:14;;;;;;;1999.90;999.90;;;23.10;50.50;;;;;;5095097;28;20043;-71
2023/09/01 10:51:40;;;;;;;1999.90;999.90;;;23.50;53.40;;;;;;5095433;28;20103;-71
2023/09/01 10:54:14;;;;;;;1999.90;999.90;;;24.40;53.10;;;;;;5090772;28;20730;-71
2023/09/01 10:57:02;;;;;;;1999.90;999.90;;;25.00;49.30;;;;;;5089512;28;20032;-71
2023/09/01 10:59:31;;;;;;;1999.90;999.90;;;24.60;45.00;;;;;;5090216;28;20583;-71
2023/09/01 11:02:20;;;;;;;1999.90;999.90;;;23.50;50.30;;;;;;5089076;28;20043;-71
2023/09/01 11:04:47;;;;;;;1999.90;999.90;;;23.00;51.80;;;;;;5092692;28;20040;-71
2023/09/01 11:07:13;;;;;;;1999.90;999.90;;;23.10;52.00;;;;;;5089033;28;20101;-72
2023/09/01 11:09:44;;;;;;;1999.90;999.90;;;23.80;50.90;;;;;;5092475;28;20024;-71
2023/09/01 11:12:11;;;;;;;1999.90;999.90;;;23.90;51.60;;;;;;5087568;28;20039;-71
2023/09/01 11:14:51;;;;;;;1999.90;999.90;;;23.40;48.50;;;;;;5092735;28;20047;-71
2023/09/01 11:17:31;;;;;;;1999.90;999.90;;;23.40;50.90;;;;;;5091684;28;20043;-71
2023/09/01 11:19:56;;;;;;;1999.90;999.90;;;23.10;50.10;;;;;;5090259;28;20040;-71
2023/09/01 11:22:22;;;;;;;1999.90;999.90;;;22.90;50.00;;;;;;5092687;28;20644;-71
2023/09/01 11:24:48;;;;;;;1999.90;999.90;;;23.20;53.50;;;;;;5092089;28;20047;-71
2023/09/01 11:27:13;;;;;;;1999.90;999.90;;;23.60;54.30;;;;;;5090703;28;20367;-71
2023/09/01 11:29:39;;;;;;;1999.90;999.90;;;24.50;48.80;;;;;;5090261;28;20026;-71
2023/09/01 11:32:05;;;;;;;1999.90;999.90;;;25.10;48.70;;;;;;5094718;28;20024;-72
2023/09/01 11:34:40;;;;;;;1999.90;999.90;;;25.50;46.40;;;;;;5090863;28;20028;-72
2023/09/01 11:37:05;;;;;;;1999.90;999.90;;;25.20;47.20;;;;;;5089804;28;20390;-71
2023/09/01 11:39:31;;;;;;;1999.90;999.90;;;25.20;47.60;;;;;;5085469;28;20032;-71
2023/09/01 11:41:59;;;;;;;1999.90;999.90;;;25.40;48.90;;;;;;5089962;28;20043;-71
2023/09/01 11:44:24;;;;;;;1999.90;999.90;;;25.20;48.20;;;;;;5089918;28;20036;-71
2023/09/01 11:46:50;;;;;;;1999.90;999.90;;;24.50;48.20;;;;;;5088705;28;20040;-71
2023/09/01 11:49:16;;;;;;;1999.90;999.90;;;23.50;52.20;;;;;;5091747;28;20035;-71
2023/09/01 11:51:42;;;;;;;1999.90;999.90;;;23.30;51.20;;;;;;5090514;28;20478;-71
2023/09/01 11:54:09;;;;;;;1999.90;999.90;;;23.20;52.90;;;;;;5084680;28;20055;-71
2023/09/01 11:56:35;;;;;;;1999.90;999.90;;;23.20;52.20;;;;;;5087166;28;20028;-71
2023/09/01 11:59:00;;;;;;;1999.90;999.90;;;23.00;52.40;;;;;;5088207;28;20124;-72
2023/09/01 12:01:35;;;;;;;1999.90;999.90;;;23.30;51.30;;;;;;5091553;28;20031;-71